Obelix — 7JAX — position and weather

sailwx.info

Track history (hours):
 
Tides and Currents Weather Stations Pressure Air Temp Water Temp Dewpoint Dewpoint Depression Visibility Wind Speed Wind Dir Waves Ship Positions

Obelix

Last reported at 2018-Jan-20 02:29 UTC. Time now 2018-Jan-20 02:42 UTC.
Position N 35°29' E 139°54'.

Length 74 m; draft 4.1 m.

Type: Ship. MMSI: 432528000.

Date/timePositionNaut miles runAvg speedWind from/ knotsBaromVisibWave heightAir tempDewpointWater temp
2018-Jan-20 02:29N 35°29' E 139°54'0 0.0
2018-Jan-20 01:59N 35°29' E 139°54'0 0.0
2018-Jan-20 01:29N 35°29' E 139°54'0 0.0
2018-Jan-20 00:59N 35°29' E 139°54'0 0.0
2018-Jan-20 00:29N 35°29' E 139°54'0 0.0
2018-Jan-19 23:56N 35°29' E 139°54'0 0.0
2018-Jan-19 23:29N 35°29' E 139°54'0 0.0
2018-Jan-19 22:59N 35°29' E 139°54'0 0.0
2018-Jan-19 22:29N 35°29' E 139°54'0 0.0
2018-Jan-19 21:59N 35°29' E 139°54'0 0.0
2018-Jan-19 21:29N 35°29' E 139°54'0 0.0
2018-Jan-19 20:59N 35°29' E 139°54'0 0.1
2018-Jan-19 20:30N 35°29' E 139°54'4 7.9
2018-Jan-19 20:00N 35°27' E 139°50'611.2
2018-Jan-19 19:30N 35°22' E 139°46'611.4
2018-Jan-19 19:00N 35°17' E 139°46'611.7
2018-Jan-19 18:30N 35°11' E 139°47'612.0
2018-Jan-19 18:00N 35°05' E 139°45'611.7
2018-Jan-19 17:29N 34°59' E 139°43'511.2
2018-Jan-19 17:00N 34°54' E 139°46'1110.6
2018-Jan-19 15:59N 34°54' E 139°59'711.0
2018-Jan-19 15:22N 34°57' E 140°06'510.8
2018-Jan-19 14:56N 34°60' E 140°11'4 0.2
2018-Jan-18 12:31N 34°58' E 140°07'1611.2
2018-Jan-18 11:08N 34°51' E 139°49'110.5
2018-Jan-18 11:00N 34°51' E 139°48'610.9
2018-Jan-18 10:26N 34°57' E 139°44'4 9.9
2018-Jan-18 10:01N 35°01' E 139°42'510.7
2018-Jan-18 09:31N 35°06' E 139°44'611.2
2018-Jan-18 09:01N 35°11' E 139°46'510.7
2018-Jan-18 08:30N 35°17' E 139°45'510.7
2018-Jan-18 08:01N 35°21' E 139°43'510.5
2018-Jan-18 07:30N 35°26' E 139°45'4 8.6
2018-Jan-18 07:00N 35°30' E 139°47'1 1.1
2018-Jan-18 06:26N 35°31' E 139°46'0 0.0
2018-Jan-18 05:59N 35°31' E 139°46'0 0.0
2018-Jan-18 05:29N 35°31' E 139°46'0 0.0
2018-Jan-18 04:56N 35°31' E 139°46'0 0.0
2018-Jan-18 04:26N 35°31' E 139°46'0 0.0
2018-Jan-18 03:59N 35°31' E 139°46'0 0.0
2018-Jan-18 03:29N 35°31' E 139°46'0 0.0
2018-Jan-18 02:59N 35°31' E 139°46'0 0.0
2018-Jan-18 02:26N 35°31' E 139°46'0 0.0
2018-Jan-18 01:56N 35°31' E 139°46'1 1.6
2018-Jan-18 01:31N 35°30' E 139°46'4 7.4
2018-Jan-18 01:00N 35°28' E 139°42'1 1.1
2018-Jan-17 23:58N 35°28' E 139°44'0 0.0
2018-Jan-17 23:55N 35°28' E 139°44'  
2018-Jan-12 15:00N 34°37' E 135°02'4 8.2
2018-Jan-12 14:30N 34°34' E 135°05'510.9
2018-Jan-12 14:00N 34°29' E 135°04'510.9
2018-Jan-12 13:30N 34°23' E 135°02'510.8
2018-Jan-12 13:00N 34°18' E 135°00'5 9.5
2018-Jan-12 12:30N 34°14' E 134°59'510.8
2018-Jan-12 12:01N 34°08' E 135°00'510.8
2018-Jan-12 11:30N 34°03' E 135°01'510.8
2018-Jan-12 11:00N 33°57' E 135°01'510.6
2018-Jan-12 10:30N 33°52' E 135°02'610.6
2018-Jan-12 09:57N 33°48' E 135°06'159 9.8
2018-Jan-11 17:42N 34°29' E 138°11'11 8.9
2018-Jan-11 16:27N 34°31' E 138°24'6 9.8
2018-Jan-11 15:53N 34°31' E 138°31'4 8.9
2018-Jan-11 15:24N 34°32' E 138°36'4 8.6
2018-Jan-11 14:54N 34°32' E 138°41'3 8.5
2018-Jan-11 14:30N 34°32' E 138°45'4 8.4
2018-Jan-11 13:58N 34°33' E 138°51'4 7.7
2018-Jan-11 13:30N 34°33' E 138°55'4 7.3
2018-Jan-11 12:58N 34°34' E 138°60'5 9.6
2018-Jan-11 12:29N 34°38' E 139°03'4 9.2
2018-Jan-11 12:00N 34°41' E 139°07'510.3
2018-Jan-11 11:30N 34°45' E 139°10'510.0
2018-Jan-11 10:58N 34°50' E 139°13'510.1
2018-Jan-11 10:30N 34°54' E 139°17'610.4
2018-Jan-11 09:58N 34°57' E 139°22'510.7
2018-Jan-11 09:30N 35°00' E 139°27'510.6
2018-Jan-11 09:00N 35°03' E 139°32'510.4
2018-Jan-11 08:30N 35°05' E 139°38'510.1
2018-Jan-11 08:00N 35°08' E 139°43'510.5
2018-Jan-11 07:30N 35°13' E 139°46'611.5
2018-Jan-11 07:00N 35°18' E 139°44'611.5
2018-Jan-11 06:30N 35°24' E 139°43'510.8
2018-Jan-11 06:00N 35°28' E 139°46'3 5.3
2018-Jan-11 05:30N 35°31' E 139°46'0 0.0
2018-Jan-11 04:59N 35°31' E 139°46'0 0.0
2018-Jan-11 04:29N 35°31' E 139°46'0 0.0
2018-Jan-11 03:59N 35°31' E 139°46'0 0.0
2018-Jan-11 03:30N 35°31' E 139°46'0 0.0
2018-Jan-11 03:00N 35°31' E 139°46'0 0.0
2018-Jan-11 02:30N 35°31' E 139°46'0 0.0
2018-Jan-11 01:56N 35°31' E 139°46'0 0.0
2018-Jan-11 01:30N 35°31' E 139°46'0 0.0
2018-Jan-11 01:00N 35°31' E 139°46'0 0.0
2018-Jan-11 00:29N 35°31' E 139°46'0 0.0
2018-Jan-11 00:00N 35°31' E 139°46'4 7.5
2018-Jan-10 23:30N 35°29' E 139°42'2 3.5
2018-Jan-10 23:01N 35°28' E 139°44'0 0.0
2018-Jan-10 22:29N 35°28' E 139°44'0 0.0
2018-Jan-10 21:59N 35°28' E 139°44'0 0.1
2018-Jan-10 21:29N 35°28' E 139°44'0 0.0
2018-Jan-10 20:59N 35°28' E 139°44'1 2.0
2018-Jan-10 20:30N 35°27' E 139°44'5 9.0
2018-Jan-10 20:00N 35°23' E 139°45'510.5
2018-Jan-10 19:31N 35°18' E 139°45'611.1
2018-Jan-10 19:00N 35°12' E 139°47'612.2
2018-Jan-10 18:30N 35°07' E 139°44'612.2
2018-Jan-10 18:00N 35°02' E 139°39'713.3
2018-Jan-10 17:31N 34°58' E 139°33'814.8
2018-Jan-10 17:00N 34°54' E 139°25'714.8
2018-Jan-10 16:30N 34°50' E 139°18'714.1
2018-Jan-10 16:00N 34°45' E 139°12'713.2
2018-Jan-10 15:29N 34°40' E 139°06'712.7
2018-Jan-10 14:56N 34°35' E 139°00'512.3
2018-Jan-10 14:30N 34°32' E 138°54'714.4
2018-Jan-10 14:00N 34°32' E 138°46'714.0
2018-Jan-10 13:28N 34°32' E 138°37'813.7
2018-Jan-10 12:53N 34°31' E 138°27'513.0
2018-Jan-10 12:30N 34°31' E 138°21'713.4
2018-Jan-10 11:57N 34°29' E 138°12'613.0
2018-Jan-10 11:28N 34°27' E 138°05'  
Track history (hours):
 
Tides and Currents Weather Stations Pressure Air Temp Water Temp Dewpoint Dewpoint Depression Visibility Wind Speed Wind Dir Waves Ship Positions

Obelix

Last reported at 2018-Jan-20 02:29 UTC. Time now 2018-Jan-20 02:42 UTC.
Position N 35°29' E 139°54'.

Length 74 m; draft 4.1 m.

Type: Ship. MMSI: 432528000.

Date/timePositionNaut miles runAvg speedWind from/ knotsBaromVisibWave heightAir tempDewpointWater temp
2018-Jan-20 02:29N 35°29' E 139°54'0 0.0
2018-Jan-20 01:59N 35°29' E 139°54'0 0.0
2018-Jan-20 01:29N 35°29' E 139°54'0 0.0
2018-Jan-20 00:59N 35°29' E 139°54'0 0.0
2018-Jan-20 00:29N 35°29' E 139°54'0 0.0
2018-Jan-19 23:56N 35°29' E 139°54'0 0.0
2018-Jan-19 23:29N 35°29' E 139°54'0 0.0
2018-Jan-19 22:59N 35°29' E 139°54'0 0.0
2018-Jan-19 22:29N 35°29' E 139°54'0 0.0
2018-Jan-19 21:59N 35°29' E 139°54'0 0.0
2018-Jan-19 21:29N 35°29' E 139°54'0 0.0
2018-Jan-19 20:59N 35°29' E 139°54'0 0.1
2018-Jan-19 20:30N 35°29' E 139°54'4 7.9
2018-Jan-19 20:00N 35°27' E 139°50'611.2
2018-Jan-19 19:30N 35°22' E 139°46'611.4
2018-Jan-19 19:00N 35°17' E 139°46'611.7
2018-Jan-19 18:30N 35°11' E 139°47'612.0
2018-Jan-19 18:00N 35°05' E 139°45'611.7
2018-Jan-19 17:29N 34°59' E 139°43'511.2
2018-Jan-19 17:00N 34°54' E 139°46'1110.6
2018-Jan-19 15:59N 34°54' E 139°59'711.0
2018-Jan-19 15:22N 34°57' E 140°06'510.8
2018-Jan-19 14:56N 34°60' E 140°11'4 0.2
2018-Jan-18 12:31N 34°58' E 140°07'1611.2
2018-Jan-18 11:08N 34°51' E 139°49'110.5
2018-Jan-18 11:00N 34°51' E 139°48'610.9
2018-Jan-18 10:26N 34°57' E 139°44'4 9.9
2018-Jan-18 10:01N 35°01' E 139°42'510.7
2018-Jan-18 09:31N 35°06' E 139°44'611.2
2018-Jan-18 09:01N 35°11' E 139°46'510.7
2018-Jan-18 08:30N 35°17' E 139°45'510.7
2018-Jan-18 08:01N 35°21' E 139°43'510.5
2018-Jan-18 07:30N 35°26' E 139°45'4 8.6
2018-Jan-18 07:00N 35°30' E 139°47'1 1.1
2018-Jan-18 06:26N 35°31' E 139°46'0 0.0
2018-Jan-18 05:59N 35°31' E 139°46'0 0.0
2018-Jan-18 05:29N 35°31' E 139°46'0 0.0
2018-Jan-18 04:56N 35°31' E 139°46'0 0.0
2018-Jan-18 04:26N 35°31' E 139°46'0 0.0
2018-Jan-18 03:59N 35°31' E 139°46'0 0.0
2018-Jan-18 03:29N 35°31' E 139°46'0 0.0
2018-Jan-18 02:59N 35°31' E 139°46'0 0.0
2018-Jan-18 02:26N 35°31' E 139°46'0 0.0
2018-Jan-18 01:56N 35°31' E 139°46'1 1.6
2018-Jan-18 01:31N 35°30' E 139°46'4 7.4
2018-Jan-18 01:00N 35°28' E 139°42'1 1.1
2018-Jan-17 23:58N 35°28' E 139°44'0 0.0
2018-Jan-17 23:55N 35°28' E 139°44'  
2018-Jan-12 15:00N 34°37' E 135°02'4 8.2
2018-Jan-12 14:30N 34°34' E 135°05'510.9
2018-Jan-12 14:00N 34°29' E 135°04'510.9
2018-Jan-12 13:30N 34°23' E 135°02'510.8
2018-Jan-12 13:00N 34°18' E 135°00'5 9.5
2018-Jan-12 12:30N 34°14' E 134°59'510.8
2018-Jan-12 12:01N 34°08' E 135°00'510.8
2018-Jan-12 11:30N 34°03' E 135°01'510.8
2018-Jan-12 11:00N 33°57' E 135°01'510.6
2018-Jan-12 10:30N 33°52' E 135°02'610.6
2018-Jan-12 09:57N 33°48' E 135°06'159 9.8
2018-Jan-11 17:42N 34°29' E 138°11'11 8.9
2018-Jan-11 16:27N 34°31' E 138°24'6 9.8
2018-Jan-11 15:53N 34°31' E 138°31'4 8.9
2018-Jan-11 15:24N 34°32' E 138°36'4 8.6
2018-Jan-11 14:54N 34°32' E 138°41'3 8.5
2018-Jan-11 14:30N 34°32' E 138°45'4 8.4
2018-Jan-11 13:58N 34°33' E 138°51'4 7.7
2018-Jan-11 13:30N 34°33' E 138°55'4 7.3
2018-Jan-11 12:58N 34°34' E 138°60'5 9.6
2018-Jan-11 12:29N 34°38' E 139°03'4 9.2
2018-Jan-11 12:00N 34°41' E 139°07'510.3
2018-Jan-11 11:30N 34°45' E 139°10'510.0
2018-Jan-11 10:58N 34°50' E 139°13'510.1
2018-Jan-11 10:30N 34°54' E 139°17'610.4
2018-Jan-11 09:58N 34°57' E 139°22'510.7
2018-Jan-11 09:30N 35°00' E 139°27'510.6
2018-Jan-11 09:00N 35°03' E 139°32'510.4
2018-Jan-11 08:30N 35°05' E 139°38'510.1
2018-Jan-11 08:00N 35°08' E 139°43'510.5
2018-Jan-11 07:30N 35°13' E 139°46'611.5
2018-Jan-11 07:00N 35°18' E 139°44'611.5
2018-Jan-11 06:30N 35°24' E 139°43'510.8
2018-Jan-11 06:00N 35°28' E 139°46'3 5.3
2018-Jan-11 05:30N 35°31' E 139°46'0 0.0
2018-Jan-11 04:59N 35°31' E 139°46'0 0.0
2018-Jan-11 04:29N 35°31' E 139°46'0 0.0
2018-Jan-11 03:59N 35°31' E 139°46'0 0.0
2018-Jan-11 03:30N 35°31' E 139°46'0 0.0
2018-Jan-11 03:00N 35°31' E 139°46'0 0.0
2018-Jan-11 02:30N 35°31' E 139°46'0 0.0
2018-Jan-11 01:56N 35°31' E 139°46'0 0.0
2018-Jan-11 01:30N 35°31' E 139°46'0 0.0
2018-Jan-11 01:00N 35°31' E 139°46'0 0.0
2018-Jan-11 00:29N 35°31' E 139°46'0 0.0
2018-Jan-11 00:00N 35°31' E 139°46'4 7.5
2018-Jan-10 23:30N 35°29' E 139°42'2 3.5
2018-Jan-10 23:01N 35°28' E 139°44'0 0.0
2018-Jan-10 22:29N 35°28' E 139°44'0 0.0
2018-Jan-10 21:59N 35°28' E 139°44'0 0.1
2018-Jan-10 21:29N 35°28' E 139°44'0 0.0
2018-Jan-10 20:59N 35°28' E 139°44'1 2.0
2018-Jan-10 20:30N 35°27' E 139°44'5 9.0
2018-Jan-10 20:00N 35°23' E 139°45'510.5
2018-Jan-10 19:31N 35°18' E 139°45'611.1
2018-Jan-10 19:00N 35°12' E 139°47'612.2
2018-Jan-10 18:30N 35°07' E 139°44'612.2
2018-Jan-10 18:00N 35°02' E 139°39'713.3
2018-Jan-10 17:31N 34°58' E 139°33'814.8
2018-Jan-10 17:00N 34°54' E 139°25'714.8
2018-Jan-10 16:30N 34°50' E 139°18'714.1
2018-Jan-10 16:00N 34°45' E 139°12'713.2
2018-Jan-10 15:29N 34°40' E 139°06'712.7
2018-Jan-10 14:56N 34°35' E 139°00'512.3
2018-Jan-10 14:30N 34°32' E 138°54'714.4
2018-Jan-10 14:00N 34°32' E 138°46'714.0
2018-Jan-10 13:28N 34°32' E 138°37'813.7
2018-Jan-10 12:53N 34°31' E 138°27'513.0
2018-Jan-10 12:30N 34°31' E 138°21'713.4
2018-Jan-10 11:57N 34°29' E 138°12'613.0
2018-Jan-10 11:28N 34°27' E 138°05'  

Dump ship's entire track history